Terminal Aerodrome Forecast
Issued by NWS Glasgow, MT

Home | Current Version | Previous Version | Text Only | Print | Product List | Glossary On
Versions: 1 2 3 4 5 6 7 8 9 10 11 12 13
000
FTUS45 KGGW 050933 AAA
TAFGGW
TAF AMD
KGGW 050933Z 0510/0606 VRB06KT P6SM VCSH SCT100
      TEMPO 0510/0512 6SM -SHRA BKN100
     FM051300 11009KT P6SM SCT100=

USA.gov is the U.S. government's official web portal to all federal, state and local government web resources and services.